sensor_id;sensor_type;location;lat;lon;timestamp;temperature;humidity
9762;DHT22;4920;49.594;11.022;2023-06-10T00:01:22;14.40;99.90
9762;DHT22;4920;49.594;11.022;2023-06-10T00:03:53;14.40;99.90
9762;DHT22;4920;49.594;11.022;2023-06-10T00:06:22;14.30;99.90
9762;DHT22;4920;49.594;11.022;2023-06-10T00:08:51;14.30;99.90
9762;DHT22;4920;49.594;11.022;2023-06-10T00:11:21;14.20;99.90
9762;DHT22;4920;49.594;11.022;2023-06-10T00:13:50;14.20;99.90
9762;DHT22;4920;49.594;11.022;2023-06-10T00:16:18;14.20;99.90
9762;DHT22;4920;49.594;11.022;2023-06-10T00:18:47;14.30;99.90
9762;DHT22;4920;49.594;11.022;2023-06-10T00:21:19;14.30;99.90
9762;DHT22;4920;49.594;11.022;2023-06-10T00:23:48;14.30;99.90
9762;DHT22;4920;49.594;11.022;2023-06-10T00:26:17;14.30;99.90
9762;DHT22;4920;49.594;11.022;2023-06-10T00:28:46;14.20;99.90
9762;DHT22;4920;49.594;11.022;2023-06-10T00:31:15;14.10;99.90
9762;DHT22;4920;49.594;11.022;2023-06-10T00:33:44;14.10;99.90
9762;DHT22;4920;49.594;11.022;2023-06-10T00:36:13;14.00;99.90
9762;DHT22;4920;49.594;11.022;2023-06-10T00:38:43;14.00;99.90
9762;DHT22;4920;49.594;11.022;2023-06-10T00:41:12;13.90;99.90
9762;DHT22;4920;49.594;11.022;2023-06-10T00:43:40;13.90;99.90
9762;DHT22;4920;49.594;11.022;2023-06-10T00:46:09;13.90;99.90
9762;DHT22;4920;49.594;11.022;2023-06-10T00:48:39;13.90;99.90
9762;DHT22;4920;49.594;11.022;2023-06-10T00:51:09;13.80;99.90
9762;DHT22;4920;49.594;11.022;2023-06-10T00:53:40;13.80;99.90
9762;DHT22;4920;49.594;11.022;2023-06-10T00:56:11;13.80;99.90
9762;DHT22;4920;49.594;11.022;2023-06-10T00:58:39;13.70;99.90
9762;DHT22;4920;49.594;11.022;2023-06-10T01:01:08;13.70;99.90
9762;DHT22;4920;49.594;11.022;2023-06-10T01:03:39;13.70;99.90
9762;DHT22;4920;49.594;11.022;2023-06-10T01:06:14;13.60;99.90
9762;DHT22;4920;49.594;11.022;2023-06-10T01:08:50;13.60;99.90
9762;DHT22;4920;49.594;11.022;2023-06-10T01:11:28;13.60;99.90
9762;DHT22;4920;49.594;11.022;2023-06-10T01:13:58;13.60;99.90
9762;DHT22;4920;49.594;11.022;2023-06-10T01:16:26;13.70;99.90
9762;DHT22;4920;49.594;11.022;2023-06-10T01:18:56;13.70;99.90
9762;DHT22;4920;49.594;11.022;2023-06-10T01:21:26;13.70;99.90
9762;DHT22;4920;49.594;11.022;2023-06-10T01:23:55;13.70;99.90
9762;DHT22;4920;49.594;11.022;2023-06-10T01:26:29;13.60;99.90
9762;DHT22;4920;49.594;11.022;2023-06-10T01:29:01;13.60;99.90
9762;DHT22;4920;49.594;11.022;2023-06-10T01:31:38;13.50;99.90
9762;DHT22;4920;49.594;11.022;2023-06-10T01:34:12;13.50;99.90
9762;DHT22;4920;49.594;11.022;2023-06-10T01:36:45;13.40;99.90
9762;DHT22;4920;49.594;11.022;2023-06-10T01:39:15;13.30;99.90
9762;DHT22;4920;49.594;11.022;2023-06-10T01:41:46;13.30;99.90
9762;DHT22;4920;49.594;11.022;2023-06-10T01:44:18;13.30;99.90
9762;DHT22;4920;49.594;11.022;2023-06-10T01:46:47;13.20;99.90
9762;DHT22;4920;49.594;11.022;2023-06-10T01:49:16;13.20;99.90
9762;DHT22;4920;49.594;11.022;2023-06-10T01:51:46;13.20;99.90
9762;DHT22;4920;49.594;11.022;2023-06-10T01:54:15;13.10;99.90
9762;DHT22;4920;49.594;11.022;2023-06-10T01:56:43;13.10;99.90
9762;DHT22;4920;49.594;11.022;2023-06-10T01:59:12;13.00;99.90
9762;DHT22;4920;49.594;11.022;2023-06-10T02:01:40;13.00;99.90
9762;DHT22;4920;49.594;11.022;2023-06-10T02:04:10;12.90;99.90
9762;DHT22;4920;49.594;11.022;2023-06-10T02:06:38;12.90;99.90
9762;DHT22;4920;49.594;11.022;2023-06-10T02:09:09;12.90;99.90
9762;DHT22;4920;49.594;11.022;2023-06-10T02:11:37;12.90;99.90
9762;DHT22;4920;49.594;11.022;2023-06-10T02:14:06;12.80;99.90
9762;DHT22;4920;49.594;11.022;2023-06-10T02:16:34;12.80;99.90
9762;DHT22;4920;49.594;11.022;2023-06-10T02:19:05;12.80;99.90
9762;DHT22;4920;49.594;11.022;2023-06-10T02:21:34;12.90;99.90
9762;DHT22;4920;49.594;11.022;2023-06-10T02:24:04;12.90;99.90
9762;DHT22;4920;49.594;11.022;2023-06-10T02:26:36;12.90;99.90
9762;DHT22;4920;49.594;11.022;2023-06-10T02:29:04;12.90;99.90
9762;DHT22;4920;49.594;11.022;2023-06-10T02:31:34;12.90;99.90
9762;DHT22;4920;49.594;11.022;2023-06-10T02:34:04;12.90;99.90
9762;DHT22;4920;49.594;11.022;2023-06-10T02:36:32;12.90;99.90
9762;DHT22;4920;49.594;11.022;2023-06-10T02:39:03;12.80;99.90
9762;DHT22;4920;49.594;11.022;2023-06-10T02:41:32;12.80;99.90
9762;DHT22;4920;49.594;11.022;2023-06-10T02:44:03;12.70;99.90
9762;DHT22;4920;49.594;11.022;2023-06-10T02:46:33;12.70;99.90
9762;DHT22;4920;49.594;11.022;2023-06-10T02:49:03;12.70;99.90
9762;DHT22;4920;49.594;11.022;2023-06-10T02:51:32;12.70;99.90
9762;DHT22;4920;49.594;11.022;2023-06-10T02:54:02;12.70;99.90
9762;DHT22;4920;49.594;11.022;2023-06-10T02:56:31;12.60;99.90
9762;DHT22;4920;49.594;11.022;2023-06-10T02:59:04;12.60;99.90
9762;DHT22;4920;49.594;11.022;2023-06-10T03:01:34;12.60;99.90
9762;DHT22;4920;49.594;11.022;2023-06-10T03:04:08;12.60;99.90
9762;DHT22;4920;49.594;11.022;2023-06-10T03:06:37;12.60;99.90
9762;DHT22;4920;49.594;11.022;2023-06-10T03:09:19;12.60;99.90
9762;DHT22;4920;49.594;11.022;2023-06-10T03:11:52;12.50;99.90
9762;DHT22;4920;49.594;11.022;2023-06-10T03:14:22;12.50;99.90
9762;DHT22;4920;49.594;11.022;2023-06-10T03:16:52;12.50;99.90
9762;DHT22;4920;49.594;11.022;2023-06-10T03:19:23;12.50;99.90
9762;DHT22;4920;49.594;11.022;2023-06-10T03:22:08;12.50;99.90
9762;DHT22;4920;49.594;11.022;2023-06-10T03:25:00;12.50;99.90
9762;DHT22;4920;49.594;11.022;2023-06-10T03:27:29;12.50;99.90
9762;DHT22;4920;49.594;11.022;2023-06-10T03:30:02;12.50;99.90
9762;DHT22;4920;49.594;11.022;2023-06-10T03:32:31;12.50;99.90
9762;DHT22;4920;49.594;11.022;2023-06-10T03:35:00;12.60;99.90
9762;DHT22;4920;49.594;11.022;2023-06-10T03:37:30;12.60;99.90
9762;DHT22;4920;49.594;11.022;2023-06-10T03:39:59;12.60;99.90
9762;DHT22;4920;49.594;11.022;2023-06-10T03:42:30;12.70;99.90
9762;DHT22;4920;49.594;11.022;2023-06-10T03:44:58;12.80;99.90
9762;DHT22;4920;49.594;11.022;2023-06-10T03:47:34;12.80;99.90
9762;DHT22;4920;49.594;11.022;2023-06-10T03:50:08;12.90;99.90
9762;DHT22;4920;49.594;11.022;2023-06-10T03:52:38;13.00;99.90
9762;DHT22;4920;49.594;11.022;2023-06-10T03:55:09;13.10;99.90
9762;DHT22;4920;49.594;11.022;2023-06-10T03:57:41;13.10;99.90
9762;DHT22;4920;49.594;11.022;2023-06-10T04:00:11;13.20;99.90
9762;DHT22;4920;49.594;11.022;2023-06-10T04:02:45;13.30;99.90
9762;DHT22;4920;49.594;11.022;2023-06-10T04:05:29;13.40;99.90
9762;DHT22;4920;49.594;11.022;2023-06-10T04:07:58;13.50;99.90
9762;DHT22;4920;49.594;11.022;2023-06-10T04:10:26;13.60;99.90
9762;DHT22;4920;49.594;11.022;2023-06-10T04:12:55;13.60;99.90
9762;DHT22;4920;49.594;11.022;2023-06-10T04:15:27;13.80;99.90
9762;DHT22;4920;49.594;11.022;2023-06-10T04:17:59;14.30;99.90
9762;DHT22;4920;49.594;11.022;2023-06-10T04:20:28;15.00;99.90
9762;DHT22;4920;49.594;11.022;2023-06-10T04:22:57;15.80;99.90
9762;DHT22;4920;49.594;11.022;2023-06-10T04:25:27;16.50;99.90
9762;DHT22;4920;49.594;11.022;2023-06-10T04:27:56;17.30;99.90
9762;DHT22;4920;49.594;11.022;2023-06-10T04:30:25;17.90;99.90
9762;DHT22;4920;49.594;11.022;2023-06-10T04:32:54;18.60;99.90
9762;DHT22;4920;49.594;11.022;2023-06-10T04:35:24;19.20;99.90
9762;DHT22;4920;49.594;11.022;2023-06-10T04:37:57;19.70;99.90
9762;DHT22;4920;49.594;11.022;2023-06-10T04:40:26;20.30;99.90
9762;DHT22;4920;49.594;11.022;2023-06-10T04:42:55;20.70;99.90
9762;DHT22;4920;49.594;11.022;2023-06-10T04:45:24;21.20;99.90
9762;DHT22;4920;49.594;11.022;2023-06-10T04:47:53;21.60;99.90
9762;DHT22;4920;49.594;11.022;2023-06-10T04:50:24;22.00;99.90
9762;DHT22;4920;49.594;11.022;2023-06-10T04:52:53;22.40;99.90
9762;DHT22;4920;49.594;11.022;2023-06-10T04:55:24;22.80;99.90
9762;DHT22;4920;49.594;11.022;2023-06-10T04:57:53;23.10;99.90
9762;DHT22;4920;49.594;11.022;2023-06-10T05:00:22;23.40;99.90
9762;DHT22;4920;49.594;11.022;2023-06-10T05:02:51;23.60;99.90
9762;DHT22;4920;49.594;11.022;2023-06-10T05:05:19;23.90;99.90
9762;DHT22;4920;49.594;11.022;2023-06-10T05:07:49;24.10;99.90
9762;DHT22;4920;49.594;11.022;2023-06-10T05:10:18;24.30;99.90
9762;DHT22;4920;49.594;11.022;2023-06-10T05:12:47;24.50;99.90
9762;DHT22;4920;49.594;11.022;2023-06-10T05:15:16;24.70;99.90
9762;DHT22;4920;49.594;11.022;2023-06-10T05:17:45;24.90;99.90
9762;DHT22;4920;49.594;11.022;2023-06-10T05:20:13;25.00;99.90
9762;DHT22;4920;49.594;11.022;2023-06-10T05:22:42;24.90;99.90
9762;DHT22;4920;49.594;11.022;2023-06-10T05:25:13;24.70;99.90
9762;DHT22;4920;49.594;11.022;2023-06-10T05:27:42;24.60;99.90
9762;DHT22;4920;49.594;11.022;2023-06-10T05:30:11;24.50;99.90
9762;DHT22;4920;49.594;11.022;2023-06-10T05:32:40;24.30;99.90
9762;DHT22;4920;49.594;11.022;2023-06-10T05:35:09;23.90;99.90
9762;DHT22;4920;49.594;11.022;2023-06-10T05:37:38;23.80;99.90
9762;DHT22;4920;49.594;11.022;2023-06-10T05:40:08;23.80;99.90
9762;DHT22;4920;49.594;11.022;2023-06-10T05:42:38;23.80;99.90
9762;DHT22;4920;49.594;11.022;2023-06-10T05:45:08;23.80;99.90
9762;DHT22;4920;49.594;11.022;2023-06-10T05:47:37;23.70;99.90
9762;DHT22;4920;49.594;11.022;2023-06-10T05:50:07;23.50;99.90
9762;DHT22;4920;49.594;11.022;2023-06-10T05:52:36;23.50;99.90
9762;DHT22;4920;49.594;11.022;2023-06-10T05:55:08;23.50;99.90
9762;DHT22;4920;49.594;11.022;2023-06-10T05:57:41;23.60;99.90
9762;DHT22;4920;49.594;11.022;2023-06-10T06:00:11;23.80;99.90
9762;DHT22;4920;49.594;11.022;2023-06-10T06:02:41;23.80;99.90
9762;DHT22;4920;49.594;11.022;2023-06-10T06:05:10;23.90;99.90
9762;DHT22;4920;49.594;11.022;2023-06-10T06:07:39;23.90;99.90
9762;DHT22;4920;49.594;11.022;2023-06-10T06:10:08;23.90;99.90
9762;DHT22;4920;49.594;11.022;2023-06-10T06:12:39;23.80;99.90
9762;DHT22;4920;49.594;11.022;2023-06-10T06:15:08;23.70;99.90
9762;DHT22;4920;49.594;11.022;2023-06-10T06:17:38;23.60;99.90
9762;DHT22;4920;49.594;11.022;2023-06-10T06:20:07;23.40;99.90
9762;DHT22;4920;49.594;11.022;2023-06-10T06:22:36;23.30;99.90
9762;DHT22;4920;49.594;11.022;2023-06-10T06:25:05;23.20;99.90
9762;DHT22;4920;49.594;11.022;2023-06-10T06:27:35;23.40;99.90
9762;DHT22;4920;49.594;11.022;2023-06-10T06:30:06;23.40;99.90
9762;DHT22;4920;49.594;11.022;2023-06-10T06:32:35;23.40;99.90
9762;DHT22;4920;49.594;11.022;2023-06-10T06:35:04;23.60;99.90
9762;DHT22;4920;49.594;11.022;2023-06-10T06:37:36;23.60;99.90
9762;DHT22;4920;49.594;11.022;2023-06-10T06:40:27;23.80;99.90
9762;DHT22;4920;49.594;11.022;2023-06-10T06:42:55;23.90;99.90
9762;DHT22;4920;49.594;11.022;2023-06-10T06:45:44;24.00;99.90
9762;DHT22;4920;49.594;11.022;2023-06-10T06:48:12;23.90;99.90
9762;DHT22;4920;49.594;11.022;2023-06-10T06:50:41;23.80;99.90
9762;DHT22;4920;49.594;11.022;2023-06-10T06:53:10;23.60;99.90
9762;DHT22;4920;49.594;11.022;2023-06-10T06:55:38;23.50;99.90
9762;DHT22;4920;49.594;11.022;2023-06-10T06:58:07;23.30;99.90
9762;DHT22;4920;49.594;11.022;2023-06-10T07:00:36;23.20;99.90
9762;DHT22;4920;49.594;11.022;2023-06-10T07:03:06;23.00;99.90
9762;DHT22;4920;49.594;11.022;2023-06-10T07:05:35;22.90;99.90
9762;DHT22;4920;49.594;11.022;2023-06-10T07:08:04;22.80;99.90
9762;DHT22;4920;49.594;11.022;2023-06-10T07:10:32;22.80;99.90
9762;DHT22;4920;49.594;11.022;2023-06-10T07:13:01;22.80;99.90
9762;DHT22;4920;49.594;11.022;2023-06-10T07:15:30;22.90;99.90
9762;DHT22;4920;49.594;11.022;2023-06-10T07:18:00;22.80;99.90
9762;DHT22;4920;49.594;11.022;2023-06-10T07:20:30;22.80;99.90
9762;DHT22;4920;49.594;11.022;2023-06-10T07:22:58;22.90;99.90
9762;DHT22;4920;49.594;11.022;2023-06-10T07:25:27;23.00;99.90
9762;DHT22;4920;49.594;11.022;2023-06-10T07:27:56;23.00;99.90
9762;DHT22;4920;49.594;11.022;2023-06-10T07:30:24;23.20;99.90
9762;DHT22;4920;49.594;11.022;2023-06-10T07:32:53;23.20;99.90
9762;DHT22;4920;49.594;11.022;2023-06-10T07:35:23;23.40;99.90
9762;DHT22;4920;49.594;11.022;2023-06-10T07:37:53;23.40;99.90
9762;DHT22;4920;49.594;11.022;2023-06-10T07:40:22;23.50;99.90
9762;DHT22;4920;49.594;11.022;2023-06-10T07:42:50;23.50;99.90
9762;DHT22;4920;49.594;11.022;2023-06-10T07:45:20;23.50;99.90
9762;DHT22;4920;49.594;11.022;2023-06-10T07:47:48;23.50;99.90
9762;DHT22;4920;49.594;11.022;2023-06-10T07:50:17;23.50;99.90
9762;DHT22;4920;49.594;11.022;2023-06-10T07:52:46;23.60;99.90
9762;DHT22;4920;49.594;11.022;2023-06-10T07:55:16;23.60;99.90
9762;DHT22;4920;49.594;11.022;2023-06-10T07:57:45;23.60;99.90
9762;DHT22;4920;49.594;11.022;2023-06-10T08:00:14;23.60;99.90
9762;DHT22;4920;49.594;11.022;2023-06-10T08:02:44;23.70;99.90
9762;DHT22;4920;49.594;11.022;2023-06-10T08:05:12;23.80;99.90
9762;DHT22;4920;49.594;11.022;2023-06-10T08:07:41;23.80;99.90
9762;DHT22;4920;49.594;11.022;2023-06-10T08:10:10;23.80;99.90
9762;DHT22;4920;49.594;11.022;2023-06-10T08:12:40;23.80;99.90
9762;DHT22;4920;49.594;11.022;2023-06-10T08:15:10;23.90;99.90
9762;DHT22;4920;49.594;11.022;2023-06-10T08:17:39;23.90;99.90
9762;DHT22;4920;49.594;11.022;2023-06-10T08:20:08;23.80;99.90
9762;DHT22;4920;49.594;11.022;2023-06-10T08:22:38;23.80;99.90
9762;DHT22;4920;49.594;11.022;2023-06-10T08:25:07;23.80;99.90
9762;DHT22;4920;49.594;11.022;2023-06-10T08:27:58;23.80;99.90
9762;DHT22;4920;49.594;11.022;2023-06-10T08:30:26;23.90;99.90
9762;DHT22;4920;49.594;11.022;2023-06-10T08:32:55;23.90;99.90
9762;DHT22;4920;49.594;11.022;2023-06-10T08:35:24;24.00;99.90
9762;DHT22;4920;49.594;11.022;2023-06-10T08:37:52;24.10;99.90
9762;DHT22;4920;49.594;11.022;2023-06-10T08:40:21;24.20;99.90
9762;DHT22;4920;49.594;11.022;2023-06-10T08:42:56;24.20;99.20
9762;DHT22;4920;49.594;11.022;2023-06-10T08:45:30;24.20;99.50
9762;DHT22;4920;49.594;11.022;2023-06-10T08:47:59;24.20;99.90
9762;DHT22;4920;49.594;11.022;2023-06-10T08:50:29;24.30;99.80
9762;DHT22;4920;49.594;11.022;2023-06-10T08:52:59;24.50;99.10
9762;DHT22;4920;49.594;11.022;2023-06-10T08:55:32;24.50;98.50
9762;DHT22;4920;49.594;11.022;2023-06-10T08:58:02;24.50;98.50
9762;DHT22;4920;49.594;11.022;2023-06-10T09:00:32;24.40;97.90
9762;DHT22;4920;49.594;11.022;2023-06-10T09:03:01;24.40;97.80
9762;DHT22;4920;49.594;11.022;2023-06-10T09:05:34;24.40;98.00
9762;DHT22;4920;49.594;11.022;2023-06-10T09:08:04;24.40;98.20
9762;DHT22;4920;49.594;11.022;2023-06-10T09:10:34;24.50;97.70
9762;DHT22;4920;49.594;11.022;2023-06-10T09:13:03;24.50;97.50
9762;DHT22;4920;49.594;11.022;2023-06-10T09:15:33;24.70;97.60
9762;DHT22;4920;49.594;11.022;2023-06-10T09:18:02;24.70;97.40
9762;DHT22;4920;49.594;11.022;2023-06-10T09:20:32;24.70;97.80
9762;DHT22;4920;49.594;11.022;2023-06-10T09:23:01;24.90;97.50
9762;DHT22;4920;49.594;11.022;2023-06-10T09:25:37;25.10;96.90
9762;DHT22;4920;49.594;11.022;2023-06-10T09:28:13;25.30;96.60
9762;DHT22;4920;49.594;11.022;2023-06-10T09:30:43;25.30;95.80
9762;DHT22;4920;49.594;11.022;2023-06-10T09:33:13;25.40;95.60
9762;DHT22;4920;49.594;11.022;2023-06-10T09:35:46;25.50;95.60
9762;DHT22;4920;49.594;11.022;2023-06-10T09:38:20;25.70;95.50
9762;DHT22;4920;49.594;11.022;2023-06-10T09:40:53;26.10;94.20
9762;DHT22;4920;49.594;11.022;2023-06-10T09:43:23;26.40;93.90
9762;DHT22;4920;49.594;11.022;2023-06-10T09:45:56;26.80;93.70
9762;DHT22;4920;49.594;11.022;2023-06-10T09:48:25;27.10;92.40
9762;DHT22;4920;49.594;11.022;2023-06-10T09:50:53;27.20;92.10
9762;DHT22;4920;49.594;11.022;2023-06-10T09:53:22;27.30;91.60
9762;DHT22;4920;49.594;11.022;2023-06-10T09:55:52;27.60;91.50
9762;DHT22;4920;49.594;11.022;2023-06-10T09:58:34;27.90;91.00
9762;DHT22;4920;49.594;11.022;2023-06-10T10:01:09;28.20;89.60
9762;DHT22;4920;49.594;11.022;2023-06-10T10:03:44;28.20;89.80
9762;DHT22;4920;49.594;11.022;2023-06-10T10:06:15;27.90;89.50
9762;DHT22;4920;49.594;11.022;2023-06-10T10:08:45;27.80;89.40
9762;DHT22;4920;49.594;11.022;2023-06-10T10:11:16;27.60;89.50
9762;DHT22;4920;49.594;11.022;2023-06-10T10:13:48;27.60;90.00
9762;DHT22;4920;49.594;11.022;2023-06-10T10:16:20;27.60;89.10
9762;DHT22;4920;49.594;11.022;2023-06-10T10:18:53;27.90;89.20
9762;DHT22;4920;49.594;11.022;2023-06-10T10:21:25;28.20;88.20
9762;DHT22;4920;49.594;11.022;2023-06-10T10:24:01;28.40;88.30
9762;DHT22;4920;49.594;11.022;2023-06-10T10:26:31;28.60;87.90
9762;DHT22;4920;49.594;11.022;2023-06-10T10:29:07;28.90;87.10
9762;DHT22;4920;49.594;11.022;2023-06-10T10:31:39;29.10;86.00
9762;DHT22;4920;49.594;11.022;2023-06-10T10:34:15;29.20;84.60
9762;DHT22;4920;49.594;11.022;2023-06-10T10:36:45;29.20;82.90
9762;DHT22;4920;49.594;11.022;2023-06-10T10:39:15;29.00;83.50
9762;DHT22;4920;49.594;11.022;2023-06-10T10:41:44;28.80;84.00
9762;DHT22;4920;49.594;11.022;2023-06-10T10:44:13;28.60;84.10
9762;DHT22;4920;49.594;11.022;2023-06-10T10:46:44;28.70;84.10
9762;DHT22;4920;49.594;11.022;2023-06-10T10:49:18;28.80;83.30
9762;DHT22;4920;49.594;11.022;2023-06-10T10:51:57;28.90;83.40
9762;DHT22;4920;49.594;11.022;2023-06-10T10:54:30;28.40;82.60
9762;DHT22;4920;49.594;11.022;2023-06-10T10:57:10;27.90;84.70
9762;DHT22;4920;49.594;11.022;2023-06-10T10:59:51;27.70;84.60
9762;DHT22;4920;49.594;11.022;2023-06-10T11:02:35;27.50;85.70
9762;DHT22;4920;49.594;11.022;2023-06-10T11:05:07;27.60;85.30
9762;DHT22;4920;49.594;11.022;2023-06-10T11:07:37;27.70;85.10
9762;DHT22;4920;49.594;11.022;2023-06-10T11:10:07;28.00;84.20
9762;DHT22;4920;49.594;11.022;2023-06-10T11:12:50;28.50;83.10
9762;DHT22;4920;49.594;11.022;2023-06-10T11:15:22;28.80;81.10
9762;DHT22;4920;49.594;11.022;2023-06-10T11:18:10;29.20;80.80
9762;DHT22;4920;49.594;11.022;2023-06-10T11:20:44;29.10;79.50
9762;DHT22;4920;49.594;11.022;2023-06-10T11:23:25;29.10;79.90
9762;DHT22;4920;49.594;11.022;2023-06-10T11:26:12;29.00;80.00
9762;DHT22;4920;49.594;11.022;2023-06-10T11:28:43;28.90;81.00
9762;DHT22;4920;49.594;11.022;2023-06-10T11:31:30;28.60;81.40
9762;DHT22;4920;49.594;11.022;2023-06-10T11:34:02;28.70;81.40
9762;DHT22;4920;49.594;11.022;2023-06-10T11:36:33;28.80;81.60
9762;DHT22;4920;49.594;11.022;2023-06-10T11:39:03;29.00;80.70
9762;DHT22;4920;49.594;11.022;2023-06-10T11:41:33;29.10;81.50
9762;DHT22;4920;49.594;11.022;2023-06-10T11:44:03;29.20;81.30
9762;DHT22;4920;49.594;11.022;2023-06-10T11:46:33;29.60;79.00
9762;DHT22;4920;49.594;11.022;2023-06-10T11:49:04;29.90;78.10
9762;DHT22;4920;49.594;11.022;2023-06-10T11:51:35;29.90;77.50
9762;DHT22;4920;49.594;11.022;2023-06-10T11:54:05;29.90;78.00
9762;DHT22;4920;49.594;11.022;2023-06-10T11:56:34;29.80;77.90
9762;DHT22;4920;49.594;11.022;2023-06-10T11:59:04;29.60;78.20
9762;DHT22;4920;49.594;11.022;2023-06-10T12:01:36;29.30;78.60
9762;DHT22;4920;49.594;11.022;2023-06-10T12:04:12;28.60;80.40
9762;DHT22;4920;49.594;11.022;2023-06-10T12:06:42;28.30;81.60
9762;DHT22;4920;49.594;11.022;2023-06-10T12:09:19;28.10;80.80
9762;DHT22;4920;49.594;11.022;2023-06-10T12:11:57;28.10;80.30
9762;DHT22;4920;49.594;11.022;2023-06-10T12:14:52;28.20;80.60
9762;DHT22;4920;49.594;11.022;2023-06-10T12:17:24;28.30;80.50
9762;DHT22;4920;49.594;11.022;2023-06-10T12:20:08;28.40;80.60
9762;DHT22;4920;49.594;11.022;2023-06-10T12:22:41;28.60;79.70
9762;DHT22;4920;49.594;11.022;2023-06-10T12:25:11;28.80;79.70
9762;DHT22;4920;49.594;11.022;2023-06-10T12:27:50;28.90;79.50
9762;DHT22;4920;49.594;11.022;2023-06-10T12:30:19;29.00;79.40
9762;DHT22;4920;49.594;11.022;2023-06-10T12:32:48;29.10;77.60
9762;DHT22;4920;49.594;11.022;2023-06-10T12:35:20;29.20;77.10
9762;DHT22;4920;49.594;11.022;2023-06-10T12:37:58;29.40;77.00
9762;DHT22;4920;49.594;11.022;2023-06-10T12:40:29;29.20;75.60
9762;DHT22;4920;49.594;11.022;2023-06-10T12:42:59;29.30;77.30
9762;DHT22;4920;49.594;11.022;2023-06-10T12:45:28;29.50;76.60
9762;DHT22;4920;49.594;11.022;2023-06-10T12:48:08;29.90;74.80
9762;DHT22;4920;49.594;11.022;2023-06-10T12:50:40;30.30;74.00
9762;DHT22;4920;49.594;11.022;2023-06-10T12:53:11;30.50;73.40
9762;DHT22;4920;49.594;11.022;2023-06-10T12:55:39;30.50;72.60
9762;DHT22;4920;49.594;11.022;2023-06-10T12:58:08;30.30;72.20
9762;DHT22;4920;49.594;11.022;2023-06-10T13:00:36;29.90;72.40
9762;DHT22;4920;49.594;11.022;2023-06-10T13:03:06;29.80;70.90
9762;DHT22;4920;49.594;11.022;2023-06-10T13:05:35;29.80;71.60
9762;DHT22;4920;49.594;11.022;2023-06-10T13:08:08;29.80;72.00
9762;DHT22;4920;49.594;11.022;2023-06-10T13:10:38;30.00;72.70
9762;DHT22;4920;49.594;11.022;2023-06-10T13:13:07;30.40;72.70
9762;DHT22;4920;49.594;11.022;2023-06-10T13:15:37;30.50;72.30
9762;DHT22;4920;49.594;11.022;2023-06-10T13:18:10;30.70;72.20
9762;DHT22;4920;49.594;11.022;2023-06-10T13:20:39;30.60;72.10
9762;DHT22;4920;49.594;11.022;2023-06-10T13:23:09;29.90;73.30
9762;DHT22;4920;49.594;11.022;2023-06-10T13:25:38;29.50;73.70
9762;DHT22;4920;49.594;11.022;2023-06-10T13:28:08;29.50;73.00
9762;DHT22;4920;49.594;11.022;2023-06-10T13:30:36;29.60;71.90
9762;DHT22;4920;49.594;11.022;2023-06-10T13:33:05;29.50;71.80
9762;DHT22;4920;49.594;11.022;2023-06-10T13:35:34;29.40;72.50
9762;DHT22;4920;49.594;11.022;2023-06-10T13:38:02;29.50;72.60
9762;DHT22;4920;49.594;11.022;2023-06-10T13:40:32;29.50;72.60
9762;DHT22;4920;49.594;11.022;2023-06-10T13:43:01;29.50;72.60
9762;DHT22;4920;49.594;11.022;2023-06-10T13:45:30;29.40;71.20
9762;DHT22;4920;49.594;11.022;2023-06-10T13:47:58;29.30;72.10
9762;DHT22;4920;49.594;11.022;2023-06-10T13:50:28;29.20;71.30
9762;DHT22;4920;49.594;11.022;2023-06-10T13:52:57;29.20;71.10
9762;DHT22;4920;49.594;11.022;2023-06-10T13:55:29;29.20;72.00
9762;DHT22;4920;49.594;11.022;2023-06-10T13:57:59;29.30;71.70
9762;DHT22;4920;49.594;11.022;2023-06-10T14:00:28;29.30;71.00
9762;DHT22;4920;49.594;11.022;2023-06-10T14:02:57;29.40;71.80
9762;DHT22;4920;49.594;11.022;2023-06-10T14:05:25;29.40;71.10
9762;DHT22;4920;49.594;11.022;2023-06-10T14:07:57;29.30;72.20
9762;DHT22;4920;49.594;11.022;2023-06-10T14:10:26;29.30;72.50
9762;DHT22;4920;49.594;11.022;2023-06-10T14:12:55;29.40;72.50
9762;DHT22;4920;49.594;11.022;2023-06-10T14:15:25;29.50;72.40
9762;DHT22;4920;49.594;11.022;2023-06-10T14:17:53;29.80;70.70
9762;DHT22;4920;49.594;11.022;2023-06-10T14:20:22;29.90;71.30
9762;DHT22;4920;49.594;11.022;2023-06-10T14:22:53;30.10;70.60
9762;DHT22;4920;49.594;11.022;2023-06-10T14:25:21;30.30;70.70
9762;DHT22;4920;49.594;11.022;2023-06-10T14:27:50;30.50;70.60
9762;DHT22;4920;49.594;11.022;2023-06-10T14:30:19;30.40;68.40
9762;DHT22;4920;49.594;11.022;2023-06-10T14:32:49;29.90;67.70
9762;DHT22;4920;49.594;11.022;2023-06-10T14:35:18;29.70;68.30
9762;DHT22;4920;49.594;11.022;2023-06-10T14:37:47;29.80;68.30
9762;DHT22;4920;49.594;11.022;2023-06-10T14:40:16;29.80;67.60
9762;DHT22;4920;49.594;11.022;2023-06-10T14:42:45;29.90;67.80
9762;DHT22;4920;49.594;11.022;2023-06-10T14:45:14;30.10;68.10
9762;DHT22;4920;49.594;11.022;2023-06-10T14:47:43;30.30;67.50
9762;DHT22;4920;49.594;11.022;2023-06-10T14:50:14;30.60;67.40
9762;DHT22;4920;49.594;11.022;2023-06-10T14:52:43;30.70;67.90
9762;DHT22;4920;49.594;11.022;2023-06-10T14:55:11;30.90;67.60
9762;DHT22;4920;49.594;11.022;2023-06-10T14:57:40;31.20;67.10
9762;DHT22;4920;49.594;11.022;2023-06-10T15:00:10;31.10;66.60
9762;DHT22;4920;49.594;11.022;2023-06-10T15:02:39;31.10;66.80
9762;DHT22;4920;49.594;11.022;2023-06-10T15:05:08;30.50;69.80
9762;DHT22;4920;49.594;11.022;2023-06-10T15:07:38;29.40;72.30
9762;DHT22;4920;49.594;11.022;2023-06-10T15:10:07;28.60;74.70
9762;DHT22;4920;49.594;11.022;2023-06-10T15:12:36;28.00;77.20
9762;DHT22;4920;49.594;11.022;2023-06-10T15:15:05;27.10;88.40
9762;DHT22;4920;49.594;11.022;2023-06-10T15:17:34;26.00;89.30
9762;DHT22;4920;49.594;11.022;2023-06-10T15:20:04;25.30;89.00
9762;DHT22;4920;49.594;11.022;2023-06-10T15:22:33;25.10;90.20
9762;DHT22;4920;49.594;11.022;2023-06-10T15:25:05;25.00;90.20
9762;DHT22;4920;49.594;11.022;2023-06-10T15:27:53;25.00;90.70
9762;DHT22;4920;49.594;11.022;2023-06-10T15:30:22;25.10;91.20
9762;DHT22;4920;49.594;11.022;2023-06-10T15:32:51;25.10;91.20
9762;DHT22;4920;49.594;11.022;2023-06-10T15:35:20;25.20;91.30
9762;DHT22;4920;49.594;11.022;2023-06-10T15:37:49;25.30;91.50
9762;DHT22;4920;49.594;11.022;2023-06-10T15:40:19;25.30;91.40
9762;DHT22;4920;49.594;11.022;2023-06-10T15:42:48;25.40;91.50
9762;DHT22;4920;49.594;11.022;2023-06-10T15:45:16;25.40;91.10
9762;DHT22;4920;49.594;11.022;2023-06-10T15:47:45;25.30;91.10
9762;DHT22;4920;49.594;11.022;2023-06-10T15:50:14;25.30;91.00
9762;DHT22;4920;49.594;11.022;2023-06-10T15:52:42;25.30;91.10
9762;DHT22;4920;49.594;11.022;2023-06-10T15:55:11;25.30;91.00
9762;DHT22;4920;49.594;11.022;2023-06-10T15:57:41;25.30;90.90
9762;DHT22;4920;49.594;11.022;2023-06-10T16:00:11;25.30;90.80
9762;DHT22;4920;49.594;11.022;2023-06-10T16:02:39;25.40;91.00
9762;DHT22;4920;49.594;11.022;2023-06-10T16:05:08;25.30;91.00
9762;DHT22;4920;49.594;11.022;2023-06-10T16:07:37;25.30;90.80